Zhe Hai 1 — VRKS2 — position and weather

sailwx.info

Track history (hours):
 
Tides and Currents Weather Stations Pressure Air Temp Water Temp Dewpoint Dewpoint Depression Visibility Wind Speed Wind Dir Waves Ship Positions

Zhe Hai 1

Last reported at 2018-Apr-19 06:14 UTC. Time now 2018-Apr-20 12:50 UTC.
Position S 05°20' E 112°43'.

Length 179 m; draft 10.2 m.

Type: Cargo ship. MMSI: 477813500.

Date/timePositionNaut miles runAvg speedWind from/ knotsBaromVisibWave heightAir tempDewpointWater temp
2018-Apr-19 06:14S 05°20' E 112°43'312.3
2018-Apr-19 05:59S 05°19' E 112°40'1612.5
2018-Apr-19 04:42S 05°10' E 112°27'212.6
2018-Apr-19 04:30S 05°09' E 112°24'2812.7
2018-Apr-19 02:17S 04°55' E 112°00'412.7
2018-Apr-19 02:00S 04°53' E 111°57'712.8
2018-Apr-19 01:29S 04°50' E 111°51'612.8
2018-Apr-19 00:59S 04°47' E 111°45'612.7
2018-Apr-19 00:30S 04°44' E 111°40'912.8
2018-Apr-18 23:48S 04°40' E 111°32'512.8
2018-Apr-18 23:26S 04°37' E 111°28'  
Track history (hours):
 
Tides and Currents Weather Stations Pressure Air Temp Water Temp Dewpoint Dewpoint Depression Visibility Wind Speed Wind Dir Waves Ship Positions

Zhe Hai 1

Last reported at 2018-Apr-19 06:14 UTC. Time now 2018-Apr-20 12:50 UTC.
Position S 05°20' E 112°43'.

Length 179 m; draft 10.2 m.

Type: Cargo ship. MMSI: 477813500.

Date/timePositionNaut miles runAvg speedWind from/ knotsBaromVisibWave heightAir tempDewpointWater temp
2018-Apr-19 06:14S 05°20' E 112°43'312.3
2018-Apr-19 05:59S 05°19' E 112°40'1612.5
2018-Apr-19 04:42S 05°10' E 112°27'212.6
2018-Apr-19 04:30S 05°09' E 112°24'2812.7
2018-Apr-19 02:17S 04°55' E 112°00'412.7
2018-Apr-19 02:00S 04°53' E 111°57'712.8
2018-Apr-19 01:29S 04°50' E 111°51'612.8
2018-Apr-19 00:59S 04°47' E 111°45'612.7
2018-Apr-19 00:30S 04°44' E 111°40'912.8
2018-Apr-18 23:48S 04°40' E 111°32'512.8
2018-Apr-18 23:26S 04°37' E 111°28'  

Dump ship's entire track history